createdAt,value
2023-01-05T00:02:06.536Z,30.48
2023-01-05T00:07:09.361Z,23.98
2023-01-05T00:12:30.806Z,19.42
2023-01-05T00:17:51.213Z,23.75
2023-01-05T00:22:55.484Z,18.55
2023-01-05T00:27:59.646Z,23.27
2023-01-05T00:33:02.522Z,22.67
2023-01-05T00:38:08.107Z,23.02
2023-01-05T00:43:12.211Z,27.48
2023-01-05T00:48:14.966Z,24.63
2023-01-05T00:53:18.163Z,12.35
2023-01-05T00:58:22.495Z,14.48
2023-01-05T01:03:25.366Z,12.82
2023-01-05T01:08:28.181Z,11.60
2023-01-05T01:13:32.331Z,16.70
2023-01-05T01:18:35.322Z,10.70
2023-01-05T01:23:38.637Z,20.35
2023-01-05T01:28:43.365Z,19.75
2023-01-05T01:33:46.218Z,18.92
2023-01-05T01:38:49.047Z,27.98
2023-01-05T01:43:54.719Z,28.98
2023-01-05T01:49:02.981Z,14.77
2023-01-05T01:54:09.379Z,15.07
2023-01-05T01:59:14.781Z,19.25
2023-01-05T02:04:17.746Z,22.85
2023-01-05T02:09:21.208Z,21.00
2023-01-05T02:14:34.801Z,20.60
2023-01-05T02:20:07.354Z,28.67
2023-01-05T02:25:32.323Z,26.35
2023-01-05T02:31:04.072Z,18.25
2023-01-05T02:36:24.969Z,25.35
2023-01-05T02:41:36.190Z,18.55
2023-01-05T02:46:41.493Z,19.52
2023-01-05T02:51:50.333Z,29.08
2023-01-05T02:56:59.090Z,22.02
2023-01-05T03:02:07.761Z,27.95
2023-01-05T03:07:14.178Z,22.98
2023-01-05T03:12:42.524Z,38.38
2023-01-05T03:17:51.000Z,21.30
2023-01-05T03:23:14.970Z,31.35
2023-01-05T03:28:39.892Z,28.27
2023-01-05T03:34:09.376Z,23.67
2023-01-05T03:39:16.514Z,23.27
2023-01-05T03:44:23.231Z,28.27
2023-01-05T03:49:27.734Z,21.77
2023-01-05T03:54:30.812Z,23.88
2023-01-05T03:59:33.704Z,32.92
2023-01-05T04:04:38.343Z,24.17
2023-01-05T04:09:44.660Z,31.85
2023-01-05T04:14:47.593Z,23.35
2023-01-05T04:19:52.295Z,28.23
2023-01-05T04:24:56.606Z,27.55
2023-01-05T04:29:59.612Z,19.02
2023-01-05T04:35:10.919Z,29.90
2023-01-05T04:40:15.782Z,19.03
2023-01-05T04:45:24.638Z,23.27
2023-01-05T04:50:29.626Z,22.35
2023-01-05T04:55:33.920Z,19.13
2023-01-05T05:00:37.985Z,25.05
2023-01-05T05:05:43.948Z,21.23
2023-01-05T05:10:49.011Z,35.22
2023-01-05T05:15:51.982Z,29.00
2023-01-05T05:20:56.929Z,30.33
2023-01-05T05:26:04.978Z,32.03
2023-01-05T05:31:07.989Z,27.67
2023-01-05T05:36:12.330Z,23.35
2023-01-05T05:41:15.168Z,28.63
2023-01-05T05:46:17.992Z,33.72
2023-01-05T05:51:22.140Z,38.38
2023-01-05T05:56:24.858Z,31.65
2023-01-05T06:01:27.812Z,26.40
2023-01-05T06:06:32.079Z,29.52
2023-01-05T06:11:34.897Z,25.48
2023-01-05T06:16:37.846Z,28.60
2023-01-05T06:21:41.999Z,22.15
2023-01-05T06:26:45.566Z,28.27
2023-01-05T06:31:48.373Z,33.35
2023-01-05T06:36:57.849Z,37.10
2023-01-05T06:42:03.407Z,22.50
2023-01-05T06:47:06.300Z,24.85
2023-01-05T06:52:15.939Z,23.10
2023-01-05T06:57:19.224Z,18.08
2023-01-05T07:02:21.987Z,29.50
2023-01-05T07:07:26.488Z,25.73
2023-01-05T07:12:29.352Z,27.70
2023-01-05T07:17:32.838Z,28.50
2023-01-05T07:22:37.085Z,23.15
2023-01-05T07:27:39.897Z,26.33
2023-01-05T07:32:42.698Z,27.65
2023-01-05T07:37:46.931Z,31.23
2023-01-05T07:42:51.936Z,26.88
2023-01-05T07:47:54.868Z,23.30
2023-01-05T07:52:59.677Z,15.93
2023-01-05T07:58:02.532Z,23.52
2023-01-05T08:03:05.407Z,16.38
2023-01-05T08:08:09.674Z,16.73
2023-01-05T08:13:30.437Z,26.80
2023-01-05T08:18:33.256Z,24.90
2023-01-05T08:23:38.792Z,13.65
2023-01-05T08:28:41.736Z,15.93
2023-01-05T08:33:45.062Z,22.58
2023-01-05T08:38:52.052Z,31.48
2023-01-05T08:43:56.085Z,26.42
2023-01-05T08:49:00.615Z,25.30
2023-01-05T08:54:05.136Z,20.75
2023-01-05T08:59:08.532Z,24.55
2023-01-05T09:04:11.300Z,27.20
2023-01-05T09:09:15.466Z,26.23
2023-01-05T09:14:18.808Z,17.10
2023-01-05T09:19:21.666Z,31.25
2023-01-05T09:24:26.299Z,23.77
2023-01-05T09:29:29.041Z,26.85
2023-01-05T09:34:31.880Z,22.60
2023-01-05T09:39:35.986Z,33.58
2023-01-05T09:44:42.780Z,35.47
2023-01-05T09:49:47.078Z,20.27
2023-01-05T09:54:51.224Z,28.08
2023-01-05T09:59:58.632Z,18.85
2023-01-05T10:05:05.312Z,18.55
2023-01-05T10:10:29.862Z,22.67
2023-01-05T10:15:43.289Z,18.98
2023-01-05T10:21:07.442Z,19.27
2023-01-05T10:26:18.634Z,16.20
2023-01-05T10:31:25.037Z,31.27
2023-01-05T10:42:17.268Z,27.80
2023-01-05T10:47:22.483Z,31.17
2023-01-05T10:52:25.489Z,30.33
2023-01-05T10:57:36.963Z,20.73
2023-01-05T11:02:42.150Z,33.40
2023-01-05T11:07:49.062Z,18.35
2023-01-05T11:13:04.449Z,14.35
2023-01-05T11:18:08.183Z,16.02
2023-01-05T11:23:35.368Z,24.33
2023-01-05T11:28:39.614Z,17.48
2023-01-05T11:33:42.471Z,14.15
2023-01-05T11:38:45.444Z,23.80
2023-01-05T11:43:51.353Z,18.85
2023-01-05T11:48:56.522Z,17.75
2023-01-05T11:53:59.395Z,24.73
2023-01-05T11:59:03.600Z,17.33
2023-01-05T12:04:17.208Z,13.90
2023-01-05T12:09:32.700Z,15.23
2023-01-05T12:14:54.726Z,14.65
2023-01-05T12:20:09.453Z,16.75
2023-01-05T12:25:21.451Z,16.73
2023-01-05T12:36:22.856Z,16.35
2023-01-05T12:41:39.737Z,20.38
2023-01-05T12:47:00.656Z,18.25
2023-01-05T12:52:10.525Z,20.08
2023-01-05T12:57:17.797Z,21.65
2023-01-05T13:02:30.533Z,18.90
2023-01-05T13:12:39.425Z,21.15
2023-01-05T13:17:48.241Z,18.83
2023-01-05T13:22:55.260Z,24.30
2023-01-05T13:27:58.096Z,16.08
2023-01-05T13:33:29.090Z,23.90
2023-01-05T13:39:11.826Z,21.10
2023-01-05T13:44:41.592Z,24.58
2023-01-05T13:50:27.699Z,27.70
2023-01-05T13:55:33.571Z,27.50
2023-01-05T14:00:42.929Z,23.77
2023-01-05T14:05:51.853Z,25.67
2023-01-05T14:11:15.768Z,27.42
2023-01-05T14:16:52.218Z,18.08
2023-01-05T14:22:36.621Z,16.08
2023-01-05T14:28:18.343Z,20.55
2023-01-05T14:33:21.944Z,17.95
2023-01-05T14:38:26.419Z,19.02
2023-01-05T14:43:32.401Z,28.20
2023-01-05T14:48:43.577Z,27.40
2023-01-05T14:53:50.239Z,20.65
2023-01-05T14:59:07.168Z,34.20
2023-01-05T15:04:14.948Z,21.92
2023-01-05T15:09:38.239Z,27.90
2023-01-05T15:15:06.550Z,24.98
2023-01-05T15:20:54.766Z,16.35
2023-01-05T15:26:23.049Z,19.17
2023-01-05T15:31:38.000Z,25.38
2023-01-05T15:36:47.822Z,27.02
2023-01-05T15:41:52.645Z,33.35
2023-01-05T15:46:56.241Z,24.98
2023-01-05T15:51:59.325Z,19.67
2023-01-05T15:57:03.584Z,30.13
2023-01-05T16:02:17.425Z,28.05
2023-01-05T16:07:20.331Z,27.40
2023-01-05T16:12:26.448Z,28.33
2023-01-05T16:17:30.801Z,31.10
2023-01-05T16:22:42.702Z,35.75
2023-01-05T16:27:50.215Z,27.53
2023-01-05T16:32:57.558Z,23.48
2023-01-05T16:38:14.629Z,30.33
2023-01-05T16:43:23.693Z,26.48
2023-01-05T16:48:49.795Z,27.52
2023-01-05T16:53:59.618Z,28.33
2023-01-05T16:59:05.615Z,25.33
2023-01-05T17:04:12.861Z,25.25
2023-01-05T17:09:20.874Z,27.52
2023-01-05T17:14:27.211Z,25.05
2023-01-05T17:19:30.117Z,20.65
2023-01-05T17:24:33.941Z,28.08
2023-01-05T17:29:38.703Z,22.05
2023-01-05T17:34:42.385Z,23.52
2023-01-05T17:39:45.256Z,22.90
2023-01-05T17:44:49.478Z,28.30
2023-01-05T17:49:52.327Z,25.17
2023-01-05T17:54:55.140Z,34.85
2023-01-05T17:59:59.280Z,28.80
2023-01-05T18:05:02.077Z,37.10
2023-01-05T18:15:17.140Z,33.28
2023-01-05T18:20:21.460Z,30.45
2023-01-05T18:25:24.806Z,27.20
2023-01-05T18:30:29.389Z,30.25
2023-01-05T18:35:32.198Z,35.83
2023-01-05T18:40:35.119Z,22.55
2023-01-05T18:45:40.233Z,30.25
2023-01-05T18:50:49.880Z,32.38
2023-01-05T18:55:53.132Z,42.60
2023-01-05T19:00:57.281Z,35.38
2023-01-05T19:06:00.131Z,33.38
2023-01-05T19:11:11.708Z,34.42
2023-01-05T19:16:16.536Z,35.85
2023-01-05T19:21:20.102Z,28.80
2023-01-05T19:26:23.565Z,31.17
2023-01-05T19:31:29.220Z,48.35
2023-01-05T19:36:34.771Z,39.53
2023-01-05T19:41:39.744Z,33.30
2023-01-05T19:46:44.632Z,45.75
2023-01-05T19:51:47.927Z,40.00
2023-01-05T19:56:50.808Z,38.22
2023-01-05T20:01:56.193Z,39.22
2023-01-05T20:07:02.346Z,45.70
2023-01-05T20:12:14.484Z,44.25
2023-01-05T20:17:19.405Z,32.35
2023-01-05T20:22:22.655Z,42.58
2023-01-05T20:27:25.409Z,49.53
2023-01-05T20:32:29.857Z,34.13
2023-01-05T20:37:33.427Z,41.05
2023-01-05T20:42:37.130Z,44.03
2023-01-05T20:47:47.554Z,41.95
2023-01-05T20:52:50.913Z,38.90
2023-01-05T20:57:53.733Z,31.17
2023-01-05T21:02:57.962Z,47.58
2023-01-05T21:08:00.739Z,28.85
2023-01-05T21:13:31.891Z,40.83
2023-01-05T21:18:28.390Z,38.58
2023-01-05T21:23:31.209Z,38.00
2023-01-05T21:28:34.076Z,41.05
2023-01-05T21:33:40.244Z,38.45
2023-01-05T21:39:00.790Z,33.78
2023-01-05T21:44:07.362Z,27.60
2023-01-05T21:49:12.792Z,33.22
2023-01-05T21:54:33.431Z,28.65
2023-01-05T21:59:36.346Z,30.70
2023-01-05T22:04:40.517Z,35.13
2023-01-05T22:09:43.484Z,36.00
2023-01-05T22:14:46.610Z,36.35
2023-01-05T22:19:53.242Z,43.53
2023-01-05T22:24:56.123Z,34.38
2023-01-05T22:29:58.933Z,30.35
2023-01-05T22:35:03.238Z,31.65
2023-01-05T22:40:07.036Z,30.45
2023-01-05T22:45:10.508Z,33.13
2023-01-05T22:50:14.648Z,34.92
2023-01-05T22:55:17.586Z,35.30
2023-01-05T23:00:20.341Z,31.92
2023-01-05T23:05:24.529Z,27.00
2023-01-05T23:10:28.388Z,37.30
2023-01-05T23:15:31.143Z,22.92
2023-01-05T23:20:35.317Z,22.52
2023-01-05T23:25:38.094Z,20.80
2023-01-05T23:30:40.982Z,17.58
2023-01-05T23:35:45.941Z,19.95
2023-01-05T23:40:50.217Z,27.10
2023-01-05T23:45:59.879Z,22.08
2023-01-05T23:51:05.889Z,21.88
2023-01-05T23:56:11.314Z,18.38
